createdAt,value
2023-05-22T00:00:04.756Z,13.26
2023-05-22T00:01:53.918Z,13.91
2023-05-22T00:03:40.369Z,15.20
2023-05-22T00:05:11.224Z,16.27
2023-05-22T00:06:45.901Z,16.28
2023-05-22T00:08:19.409Z,15.84
2023-05-22T00:10:04.378Z,15.42
2023-05-22T00:11:40.359Z,15.03
2023-05-22T00:13:25.855Z,14.74
2023-05-22T00:15:10.062Z,14.50
2023-05-22T00:16:45.710Z,14.31
2023-05-22T00:18:09.691Z,14.16
2023-05-22T00:19:45.188Z,14.03
2023-05-22T00:21:26.172Z,13.90
2023-05-22T00:23:02.411Z,13.76
2023-05-22T00:24:47.663Z,13.66
2023-05-22T00:26:35.160Z,13.55
2023-05-22T00:28:08.776Z,13.45
2023-05-22T00:29:42.026Z,13.35
2023-05-22T00:31:24.792Z,13.27
2023-05-22T00:32:58.547Z,13.19
2023-05-22T00:34:31.951Z,13.53
2023-05-22T00:35:54.665Z,14.53
2023-05-22T00:37:20.751Z,15.68
2023-05-22T00:38:42.588Z,16.35
2023-05-22T00:40:18.823Z,16.20
2023-05-22T00:41:42.515Z,15.79
2023-05-22T00:43:23.383Z,15.36
2023-05-22T00:45:08.376Z,14.94
2023-05-22T00:46:34.845Z,14.63
2023-05-22T00:48:08.480Z,14.42
2023-05-22T00:49:30.320Z,14.20
2023-05-22T00:51:06.209Z,14.03
2023-05-22T00:52:32.943Z,13.87
2023-05-22T00:54:14.004Z,13.73
2023-05-22T00:55:35.847Z,13.61
2023-05-22T00:57:00.749Z,13.50
2023-05-22T00:58:24.876Z,13.40
2023-05-22T00:59:59.724Z,13.31
2023-05-22T01:01:36.872Z,13.20
2023-05-22T01:03:21.930Z,13.11
2023-05-22T01:04:57.880Z,13.63
2023-05-22T01:06:39.673Z,14.83
2023-05-22T01:08:01.903Z,15.91
2023-05-22T01:09:28.818Z,16.07
2023-05-22T01:11:10.452Z,15.70
2023-05-22T01:12:44.375Z,15.21
2023-05-22T01:14:29.410Z,14.83
2023-05-22T01:16:14.802Z,14.49
2023-05-22T01:17:56.006Z,14.22
2023-05-22T01:19:42.636Z,14.01
2023-05-22T01:21:27.903Z,13.81
2023-05-22T01:23:03.384Z,13.67
2023-05-22T01:24:46.236Z,13.53
2023-05-22T01:26:31.594Z,13.40
2023-05-22T01:28:17.090Z,13.27
2023-05-22T01:29:50.627Z,13.16
2023-05-22T01:31:26.075Z,13.08
2023-05-22T01:32:59.937Z,13.17
2023-05-22T01:34:47.472Z,14.13
2023-05-22T01:36:22.543Z,15.46
2023-05-22T01:37:56.251Z,16.08
2023-05-22T01:39:30.077Z,15.82
2023-05-22T01:41:10.714Z,15.38
2023-05-22T01:42:44.275Z,14.98
2023-05-22T01:44:25.541Z,14.61
2023-05-22T01:45:50.307Z,14.33
2023-05-22T01:47:35.551Z,14.12
2023-05-22T01:49:16.500Z,13.93
2023-05-22T01:50:56.933Z,13.76
2023-05-22T01:52:55.837Z,13.60
2023-05-22T01:54:40.422Z,13.46
2023-05-22T01:56:17.028Z,13.35
2023-05-22T01:57:52.939Z,13.23
2023-05-22T01:59:26.190Z,13.13
2023-05-22T02:01:07.077Z,13.04
2023-05-22T02:02:53.421Z,12.96
2023-05-22T02:04:22.633Z,12.87
2023-05-22T02:05:56.530Z,12.98
2023-05-22T02:07:41.508Z,14.14
2023-05-22T02:09:13.053Z,15.38
2023-05-22T02:10:47.364Z,15.92
2023-05-22T02:12:32.781Z,15.62
2023-05-22T02:14:18.164Z,15.12
2023-05-22T02:15:51.588Z,14.68
2023-05-22T02:17:24.628Z,14.36
2023-05-22T02:18:46.738Z,14.13
2023-05-22T02:20:27.492Z,13.91
2023-05-22T02:22:02.108Z,13.72
2023-05-22T02:23:47.047Z,13.53
2023-05-22T02:25:21.279Z,13.38
2023-05-22T02:27:06.229Z,13.22
2023-05-22T02:28:51.271Z,13.08
2023-05-22T02:30:36.980Z,12.93
2023-05-22T02:32:20.176Z,13.07
2023-05-22T02:33:53.969Z,14.27
2023-05-22T02:35:39.572Z,15.49
2023-05-22T02:37:15.729Z,15.99
2023-05-22T02:39:10.685Z,15.61
2023-05-22T02:40:52.000Z,15.00
2023-05-22T02:42:16.574Z,14.60
2023-05-22T02:43:50.417Z,14.25
2023-05-22T02:45:23.595Z,13.97
2023-05-22T02:46:57.482Z,13.76
2023-05-22T02:48:44.849Z,13.54
2023-05-22T02:50:08.411Z,13.36
2023-05-22T02:51:41.934Z,13.20
2023-05-22T02:53:03.864Z,13.08
2023-05-22T02:54:37.495Z,12.98
2023-05-22T02:56:12.972Z,13.56
2023-05-22T02:57:46.486Z,14.79
2023-05-22T02:59:17.717Z,15.78
2023-05-22T03:00:47.082Z,15.90
2023-05-22T03:02:21.761Z,15.53
2023-05-22T03:03:50.834Z,15.04
2023-05-22T03:05:24.839Z,14.59
2023-05-22T03:06:58.223Z,14.26
2023-05-22T03:08:34.128Z,13.98
2023-05-22T03:10:08.925Z,13.77
2023-05-22T03:11:45.023Z,13.55
2023-05-22T03:13:28.953Z,13.40
2023-05-22T03:15:15.150Z,13.23
2023-05-22T03:17:00.212Z,13.50
2023-05-22T03:18:27.626Z,14.64
2023-05-22T03:20:04.910Z,15.82
2023-05-22T03:21:49.684Z,16.03
2023-05-22T03:23:33.408Z,15.66
2023-05-22T03:25:14.317Z,15.13
2023-05-22T03:27:00.238Z,14.70
2023-05-22T03:28:41.901Z,14.35
2023-05-22T03:30:22.953Z,14.14
2023-05-22T03:32:04.849Z,13.92
2023-05-22T03:33:38.329Z,13.74
2023-05-22T03:35:29.900Z,13.61
2023-05-22T03:37:22.422Z,13.47
2023-05-22T03:38:56.629Z,13.37
2023-05-22T03:40:42.261Z,13.26
2023-05-22T03:42:17.312Z,13.26
2023-05-22T03:44:02.883Z,14.23
2023-05-22T03:45:47.948Z,15.66
2023-05-22T03:47:35.482Z,16.34
2023-05-22T03:49:25.263Z,16.02
2023-05-22T03:51:14.869Z,15.52
2023-05-22T03:52:38.592Z,15.14
2023-05-22T03:54:07.458Z,14.86
2023-05-22T03:55:42.781Z,14.64
2023-05-22T03:57:25.058Z,14.47
2023-05-22T03:58:51.507Z,14.31
2023-05-22T04:00:42.406Z,14.19
2023-05-22T04:02:17.099Z,14.06
2023-05-22T04:03:58.320Z,13.95
2023-05-22T04:05:32.013Z,13.86
2023-05-22T04:06:53.926Z,13.79
2023-05-22T04:08:46.935Z,13.73
2023-05-22T04:10:22.451Z,13.69
2023-05-22T04:11:58.461Z,14.37
2023-05-22T04:13:31.918Z,15.50
2023-05-22T04:15:21.874Z,16.62
2023-05-22T04:16:57.475Z,16.59
2023-05-22T04:18:43.927Z,16.20
2023-05-22T04:20:17.970Z,15.79
2023-05-22T04:21:59.040Z,15.50
2023-05-22T04:23:52.567Z,15.27
2023-05-22T04:25:26.061Z,15.10
2023-05-22T04:27:07.047Z,14.95
2023-05-22T04:28:42.950Z,14.85
2023-05-22T04:30:32.941Z,14.76
2023-05-22T04:32:08.712Z,14.68
2023-05-22T04:33:39.931Z,14.62
2023-05-22T04:35:31.678Z,14.57
2023-05-22T04:37:13.501Z,14.54
2023-05-22T04:38:36.617Z,14.51
2023-05-22T04:40:19.067Z,14.50
2023-05-22T04:42:04.008Z,14.48
2023-05-22T04:43:50.327Z,14.47
2023-05-22T04:45:25.296Z,14.47
2023-05-22T04:46:59.769Z,14.47
2023-05-22T04:48:43.586Z,14.48
2023-05-22T04:50:24.304Z,14.50
2023-05-22T04:52:09.388Z,14.50
2023-05-22T04:53:33.542Z,14.52
2023-05-22T04:55:23.608Z,14.53
2023-05-22T04:56:53.267Z,14.54
2023-05-22T04:58:41.156Z,14.57
2023-05-22T05:00:27.643Z,14.59
2023-05-22T05:02:03.906Z,14.62
2023-05-22T05:03:40.127Z,14.65
2023-05-22T05:05:34.725Z,14.68
2023-05-22T05:07:05.030Z,14.71
2023-05-22T05:08:49.722Z,14.75
2023-05-22T05:10:23.167Z,14.80
2023-05-22T05:12:16.413Z,14.84
2023-05-22T05:14:01.997Z,14.90
2023-05-22T05:15:47.604Z,14.95
2023-05-22T05:17:29.838Z,14.99
2023-05-22T05:19:23.574Z,15.03
2023-05-22T05:20:45.740Z,15.07
2023-05-22T05:22:10.120Z,15.11
2023-05-22T05:23:43.271Z,15.16
2023-05-22T05:25:24.480Z,15.20
2023-05-22T05:27:06.055Z,15.25
2023-05-22T05:28:51.016Z,15.29
2023-05-22T05:30:31.930Z,15.32
2023-05-22T05:32:14.379Z,15.35
2023-05-22T05:33:58.019Z,15.38
2023-05-22T05:35:50.436Z,15.39
2023-05-22T05:37:26.006Z,15.41
2023-05-22T05:39:08.381Z,15.41
2023-05-22T05:40:45.421Z,15.42
2023-05-22T05:42:27.476Z,15.43
2023-05-22T05:44:04.269Z,15.42
2023-05-22T05:45:50.545Z,15.42
2023-05-22T05:47:12.080Z,15.42
2023-05-22T05:48:36.181Z,15.44
2023-05-22T05:50:21.331Z,15.45
2023-05-22T05:52:02.078Z,15.48
2023-05-22T05:53:36.963Z,15.52
2023-05-22T05:55:11.408Z,15.55
2023-05-22T05:56:57.109Z,15.61
2023-05-22T05:58:51.185Z,15.66
2023-05-22T06:00:43.923Z,15.73
2023-05-22T06:02:17.433Z,15.80
2023-05-22T06:04:06.079Z,15.86
2023-05-22T06:05:42.115Z,15.93
2023-05-22T06:07:15.628Z,15.99
2023-05-22T06:09:05.027Z,16.06
2023-05-22T06:10:27.456Z,16.13
2023-05-22T06:12:16.371Z,16.21
2023-05-22T06:14:03.162Z,16.29
2023-05-22T06:15:36.477Z,16.40
2023-05-22T06:17:30.328Z,16.48
2023-05-22T06:18:57.049Z,16.57
2023-05-22T06:20:44.838Z,16.65
2023-05-22T06:22:14.243Z,16.73
2023-05-22T06:23:59.907Z,16.82
2023-05-22T06:25:46.522Z,16.93
2023-05-22T06:27:31.438Z,17.04
2023-05-22T06:29:25.373Z,17.15
2023-05-22T06:31:10.439Z,17.27
2023-05-22T06:32:51.163Z,17.37
2023-05-22T06:34:35.978Z,17.48
2023-05-22T06:36:00.743Z,17.57
2023-05-22T06:37:43.175Z,17.66
2023-05-22T06:39:29.767Z,17.77
2023-05-22T06:41:48.086Z,17.90
2023-05-22T06:43:23.805Z,18.01
2023-05-22T06:45:04.304Z,18.10
2023-05-22T06:46:43.173Z,18.19
2023-05-22T06:48:09.549Z,18.26
2023-05-22T06:49:56.439Z,18.36
2023-05-22T06:51:32.002Z,18.45
2023-05-22T06:53:23.824Z,18.54
2023-05-22T06:55:04.228Z,18.63
2023-05-22T06:56:31.882Z,18.72
2023-05-22T06:58:08.873Z,18.81
2023-05-22T06:59:45.762Z,18.88
2023-05-22T07:01:30.188Z,18.97
2023-05-22T07:03:10.332Z,19.04
2023-05-22T07:04:46.351Z,19.10
2023-05-22T07:06:24.760Z,19.18
2023-05-22T07:08:01.051Z,19.23
2023-05-22T07:09:35.791Z,19.30
2023-05-22T07:11:10.101Z,19.37
2023-05-22T07:12:43.451Z,19.46
2023-05-22T07:14:19.130Z,19.54
2023-05-22T07:16:00.250Z,19.61
2023-05-22T07:17:24.870Z,19.69
2023-05-22T07:18:58.489Z,19.75
2023-05-22T07:20:48.701Z,19.81
2023-05-22T07:22:26.766Z,19.90
2023-05-22T07:24:11.965Z,19.97
2023-05-22T07:26:03.420Z,20.06
2023-05-22T07:27:39.692Z,20.13
2023-05-22T07:29:25.785Z,20.19
2023-05-22T07:31:12.342Z,20.25
2023-05-22T07:32:45.781Z,20.33
2023-05-22T07:34:19.476Z,20.39
2023-05-22T07:35:53.321Z,20.44
2023-05-22T07:37:28.928Z,20.49
2023-05-22T07:39:02.429Z,20.54
2023-05-22T07:40:47.383Z,20.57
2023-05-22T07:42:32.731Z,20.62
2023-05-22T07:43:59.791Z,20.66
2023-05-22T07:45:48.326Z,20.72
2023-05-22T07:47:38.732Z,20.79
2023-05-22T07:49:16.229Z,20.85
2023-05-22T07:50:51.696Z,20.89
2023-05-22T07:52:25.478Z,20.93
2023-05-22T07:53:54.490Z,20.98
2023-05-22T07:55:40.647Z,21.03
2023-05-22T07:57:33.158Z,21.10
2023-05-22T07:59:24.240Z,21.18
2023-05-22T08:01:05.839Z,21.26
2023-05-22T08:02:52.411Z,21.33
2023-05-22T08:04:37.828Z,21.40
2023-05-22T08:06:29.172Z,21.47
2023-05-22T08:08:03.731Z,21.53
2023-05-22T08:09:48.652Z,21.58
2023-05-22T08:11:40.448Z,21.64
2023-05-22T08:13:25.767Z,21.70
2023-05-22T08:15:18.115Z,21.74
2023-05-22T08:16:59.338Z,21.78
2023-05-22T08:18:40.765Z,21.81
2023-05-22T08:20:21.573Z,21.86
2023-05-22T08:21:58.041Z,21.90
2023-05-22T08:23:31.326Z,21.92
2023-05-22T08:25:05.109Z,21.94
2023-05-22T08:26:47.316Z,21.96
2023-05-22T08:28:32.256Z,21.99
2023-05-22T08:30:13.125Z,22.01
2023-05-22T08:31:58.433Z,22.03
2023-05-22T08:33:22.771Z,22.05
2023-05-22T08:34:46.862Z,22.08
2023-05-22T08:36:32.333Z,22.11
2023-05-22T08:38:05.846Z,22.11
2023-05-22T08:39:40.610Z,22.12
2023-05-22T08:41:25.136Z,22.14
2023-05-22T08:43:01.598Z,22.18
2023-05-22T08:44:27.803Z,22.21
2023-05-22T08:46:13.009Z,22.24
2023-05-22T08:47:58.388Z,22.28
2023-05-22T08:49:51.582Z,22.33
2023-05-22T08:51:45.788Z,22.38
2023-05-22T08:53:39.434Z,22.43
2023-05-22T08:55:12.605Z,22.47
2023-05-22T08:56:57.823Z,22.51
2023-05-22T08:58:31.324Z,22.53
2023-05-22T08:59:55.296Z,22.55
2023-05-22T09:01:17.101Z,22.57
2023-05-22T09:02:53.081Z,22.59
2023-05-22T09:04:36.670Z,22.62
2023-05-22T09:06:11.241Z,22.65
2023-05-22T09:07:33.018Z,22.66
2023-05-22T09:08:55.098Z,22.68
2023-05-22T09:10:36.831Z,22.70
2023-05-22T09:12:12.443Z,22.74
2023-05-22T09:13:45.900Z,22.78
2023-05-22T09:15:21.234Z,22.83
2023-05-22T09:17:02.104Z,22.86
2023-05-22T09:20:32.485Z,22.93
2023-05-22T09:22:07.835Z,22.99
2023-05-22T09:23:43.665Z,23.04
2023-05-22T09:25:07.889Z,23.10
2023-05-22T09:27:01.599Z,23.15
2023-05-22T09:28:25.397Z,23.19
2023-05-22T09:30:06.891Z,23.24
2023-05-22T09:31:42.474Z,23.30
2023-05-22T09:33:18.033Z,23.36
2023-05-22T09:34:51.850Z,23.40
2023-05-22T09:36:28.095Z,23.45
2023-05-22T09:38:11.429Z,23.50
2023-05-22T09:39:57.926Z,23.54
2023-05-22T09:41:34.190Z,23.55
2023-05-22T09:42:58.039Z,23.58
2023-05-22T09:44:20.087Z,23.60
2023-05-22T09:45:41.882Z,23.64
2023-05-22T09:47:17.856Z,23.68
2023-05-22T09:48:39.830Z,23.73
2023-05-22T09:50:14.004Z,23.77
2023-05-22T09:51:42.872Z,23.82
2023-05-22T09:53:27.925Z,23.89
2023-05-22T09:55:05.260Z,23.95
2023-05-22T09:56:38.681Z,23.98
2023-05-22T09:58:13.852Z,24.04
2023-05-22T09:59:42.914Z,24.07
2023-05-22T10:01:19.185Z,24.11
2023-05-22T10:02:55.051Z,24.12
2023-05-22T10:04:18.306Z,24.12
2023-05-22T10:05:42.409Z,24.13
2023-05-22T10:07:06.762Z,24.15
2023-05-22T10:08:28.954Z,24.18
2023-05-22T10:09:53.260Z,24.21
2023-05-22T10:11:17.182Z,24.23
2023-05-22T10:12:39.022Z,24.26
2023-05-22T10:14:08.898Z,24.27
2023-05-22T10:15:31.160Z,24.25
2023-05-22T10:17:13.109Z,24.24
2023-05-22T10:18:58.243Z,24.22
2023-05-22T10:20:39.917Z,24.22
2023-05-22T10:22:28.683Z,24.22
2023-05-22T10:23:52.942Z,24.21
2023-05-22T10:25:38.012Z,24.21
2023-05-22T10:27:19.335Z,24.22
2023-05-22T10:28:46.100Z,24.26
2023-05-22T18:54:46.260Z,17.19
2023-05-22T18:56:19.356Z,17.12
2023-05-22T18:58:04.290Z,17.05
2023-05-22T18:59:33.612Z,16.97
2023-05-22T19:01:08.328Z,16.90
2023-05-22T19:02:53.551Z,16.83
2023-05-22T19:04:38.207Z,16.74
2023-05-22T19:06:14.235Z,16.66
2023-05-22T19:07:50.135Z,16.57
2023-05-22T19:09:22.062Z,16.50
2023-05-22T19:10:55.560Z,16.42
2023-05-22T19:12:26.879Z,16.37
2023-05-22T19:14:01.691Z,16.29
2023-05-22T19:15:25.544Z,16.24
2023-05-22T19:17:01.696Z,16.19
2023-05-22T19:18:27.316Z,16.13
2023-05-22T19:20:09.966Z,16.08
2023-05-22T19:21:42.714Z,16.03
2023-05-22T19:23:06.715Z,15.98
2023-05-22T19:24:32.503Z,15.95
2023-05-22T19:26:14.002Z,15.89
2023-05-22T19:27:47.485Z,15.85
2023-05-22T19:29:34.826Z,15.80
2023-05-22T19:30:58.460Z,15.75
2023-05-22T19:32:26.259Z,15.71
2023-05-22T19:33:52.454Z,15.67
2023-05-22T19:35:14.966Z,15.63
2023-05-22T19:36:57.343Z,15.58
2023-05-22T19:38:23.376Z,15.54
2023-05-22T19:39:57.090Z,15.50
2023-05-22T19:41:22.778Z,15.45
2023-05-22T19:42:47.105Z,15.42
2023-05-22T19:44:11.279Z,15.37
2023-05-22T19:45:32.831Z,15.34
2023-05-22T19:47:01.860Z,15.31
2023-05-22T19:48:33.119Z,15.26
2023-05-22T19:50:06.741Z,15.22
2023-05-22T19:51:42.714Z,15.18
2023-05-22T19:53:07.161Z,15.14
2023-05-22T19:54:31.900Z,15.10
2023-05-22T19:56:02.118Z,15.05
2023-05-22T19:57:23.835Z,15.01
2023-05-22T19:58:45.767Z,14.98
2023-05-22T20:00:19.419Z,14.92
2023-05-22T20:01:40.915Z,14.89
2023-05-22T20:03:25.902Z,14.84
2023-05-22T20:05:20.171Z,14.79
2023-05-22T20:06:54.556Z,14.74
2023-05-22T20:08:18.078Z,14.70
2023-05-22T20:09:51.439Z,14.67
2023-05-22T20:11:26.136Z,14.63
2023-05-22T20:12:50.087Z,14.60
2023-05-22T20:14:11.862Z,14.57
2023-05-22T20:15:36.747Z,14.53
2023-05-22T20:17:22.184Z,14.49
2023-05-22T20:18:56.299Z,14.45
2023-05-22T20:20:19.489Z,14.41
2023-05-22T20:22:00.258Z,14.37
2023-05-22T20:23:24.585Z,14.34
2023-05-22T20:24:55.002Z,14.31
2023-05-22T20:26:40.119Z,14.27
2023-05-22T20:28:13.913Z,14.23
2023-05-22T20:30:07.551Z,14.20
2023-05-22T20:31:43.486Z,14.17
2023-05-22T20:33:37.310Z,14.14
2023-05-22T20:35:18.233Z,14.93
2023-05-22T20:36:42.817Z,16.11
2023-05-22T20:38:18.928Z,17.06
2023-05-22T20:39:45.040Z,17.09
2023-05-22T20:41:19.753Z,16.72
2023-05-22T20:42:44.241Z,16.36
2023-05-22T20:44:12.335Z,16.04
2023-05-22T20:45:47.995Z,15.75
2023-05-22T20:47:17.124Z,15.54
2023-05-22T20:48:50.489Z,15.36
2023-05-22T20:50:19.792Z,15.21
2023-05-22T20:51:43.699Z,15.07
2023-05-22T20:53:18.222Z,14.95
2023-05-22T20:54:39.836Z,14.85
2023-05-22T20:56:15.540Z,14.75
2023-05-22T20:57:46.292Z,14.64
2023-05-22T20:59:15.884Z,14.56
2023-05-22T21:00:42.052Z,14.46
2023-05-22T21:02:04.182Z,14.38
2023-05-22T21:03:35.541Z,14.30
2023-05-22T21:04:57.185Z,14.22
2023-05-22T21:06:33.752Z,14.14
2023-05-22T21:08:10.876Z,14.07
2023-05-22T21:09:40.148Z,13.99
2023-05-22T21:11:13.551Z,13.93
2023-05-22T21:12:46.922Z,13.86
2023-05-22T21:14:20.505Z,13.80
2023-05-22T21:15:42.616Z,13.81
2023-05-22T21:17:07.500Z,14.40
2023-05-22T21:18:29.114Z,15.48
2023-05-22T21:19:55.958Z,16.54
2023-05-22T21:21:20.010Z,16.95
2023-05-22T21:22:51.176Z,16.71
2023-05-22T21:24:20.694Z,16.32
2023-05-22T21:25:54.185Z,15.89
2023-05-22T21:27:35.775Z,15.57
2023-05-22T21:28:59.709Z,15.30
2023-05-22T21:30:29.758Z,15.10
2023-05-22T21:31:53.698Z,14.93
2023-05-22T21:33:15.876Z,14.80
2023-05-22T21:34:41.035Z,14.66
2023-05-22T21:36:07.689Z,14.54
2023-05-22T21:37:48.415Z,14.41
2023-05-22T21:39:17.901Z,14.29
2023-05-22T21:40:42.841Z,14.19
2023-05-22T21:42:19.025Z,14.09
2023-05-22T21:43:41.589Z,13.99
2023-05-22T21:45:11.296Z,13.90
2023-05-22T21:46:35.805Z,13.83
2023-05-22T21:48:09.728Z,14.34
2023-05-22T21:49:43.407Z,15.34
2023-05-22T21:51:07.914Z,16.50
2023-05-22T21:52:48.954Z,16.78
2023-05-22T21:54:11.020Z,16.45
2023-05-22T21:55:35.215Z,16.06
2023-05-22T21:56:57.366Z,15.68
2023-05-22T21:58:19.879Z,15.37
2023-05-22T21:59:53.039Z,15.09
2023-05-22T22:01:20.682Z,14.87
2023-05-22T22:03:06.995Z,14.66
2023-05-22T22:04:51.904Z,14.46
2023-05-22T22:06:13.685Z,14.31
2023-05-22T22:07:49.768Z,14.17
2023-05-22T22:09:12.196Z,14.05
2023-05-22T22:10:44.533Z,13.93
2023-05-22T22:12:06.556Z,13.83
2023-05-22T22:13:30.446Z,13.76
2023-05-22T22:14:54.735Z,14.20
2023-05-22T22:16:24.368Z,15.20
2023-05-22T22:17:47.411Z,16.30
2023-05-22T22:19:11.822Z,16.65
2023-05-22T22:20:45.119Z,16.37
2023-05-22T22:22:18.793Z,15.96
2023-05-22T22:23:40.631Z,15.54
2023-05-22T22:25:14.141Z,15.23
2023-05-22T22:26:47.952Z,14.92
2023-05-22T22:28:10.462Z,14.71
2023-05-22T22:29:46.847Z,14.53
2023-05-22T22:31:11.723Z,14.36
2023-05-22T22:32:35.963Z,14.22
2023-05-22T22:34:09.054Z,14.09
2023-05-22T22:35:54.013Z,13.94
2023-05-22T22:37:27.650Z,13.81
2023-05-22T22:38:49.456Z,13.70
2023-05-22T22:40:26.664Z,13.59
2023-05-22T22:41:51.049Z,13.56
2023-05-22T22:43:15.629Z,14.13
2023-05-22T22:44:46.700Z,15.21
2023-05-22T22:46:09.123Z,16.22
2023-05-22T22:47:31.882Z,16.39
2023-05-22T22:48:57.045Z,16.08
2023-05-22T22:50:21.625Z,15.67
2023-05-22T22:51:43.737Z,15.31
2023-05-22T22:53:21.009Z,15.02
2023-05-22T22:54:45.575Z,14.73
2023-05-22T22:56:17.935Z,14.52
2023-05-22T22:57:51.262Z,14.34
2023-05-22T22:59:24.709Z,14.16
2023-05-22T23:00:49.994Z,14.02
2023-05-22T23:02:22.404Z,13.89
2023-05-22T23:03:46.447Z,13.78
2023-05-22T23:05:27.851Z,13.66
2023-05-22T23:06:59.591Z,13.55
2023-05-22T23:08:23.947Z,13.45
2023-05-22T23:10:05.327Z,13.39
2023-05-22T23:11:39.194Z,14.01
2023-05-22T23:13:24.505Z,15.36
2023-05-22T23:14:55.755Z,16.16
2023-05-22T23:16:37.836Z,16.04
2023-05-22T23:18:23.585Z,15.53
2023-05-22T23:20:08.935Z,15.09
2023-05-22T23:21:45.396Z,14.75
2023-05-22T23:23:34.763Z,14.48
2023-05-22T23:25:20.088Z,14.24
2023-05-22T23:26:55.719Z,14.07
2023-05-22T23:28:37.750Z,13.91
2023-05-22T23:30:11.158Z,13.77
2023-05-22T23:31:56.294Z,13.65
2023-05-22T23:33:32.146Z,13.55
2023-05-22T23:35:26.270Z,13.44
2023-05-22T23:37:00.285Z,13.32
2023-05-22T23:38:35.731Z,13.26
2023-05-22T23:40:18.196Z,13.73
2023-05-22T23:41:54.157Z,15.05
2023-05-22T23:43:37.196Z,16.08
2023-05-22T23:45:06.486Z,16.11
2023-05-22T23:46:39.218Z,15.74
2023-05-22T23:48:08.031Z,15.31
2023-05-22T23:49:41.384Z,14.94
2023-05-22T23:51:05.213Z,14.63
2023-05-22T23:52:38.732Z,14.37
2023-05-22T23:54:00.494Z,14.19
2023-05-22T23:55:45.744Z,14.00
2023-05-22T23:57:23.644Z,13.84
2023-05-22T23:59:08.871Z,13.68
